createdAt,value
2022-10-29T00:00:59.182Z,30.92
2022-10-29T00:03:26.523Z,30.98
2022-10-29T00:06:01.126Z,28.63
2022-10-29T00:08:28.516Z,28.73
2022-10-29T00:10:55.419Z,29.92
2022-10-29T00:13:22.259Z,31.17
2022-10-29T00:15:49.040Z,30.73
2022-10-29T00:18:15.857Z,30.97
2022-10-29T00:20:42.670Z,31.02
2022-10-29T00:23:09.482Z,33.13
2022-10-29T00:25:36.313Z,27.90
2022-10-29T00:28:03.104Z,28.60
2022-10-29T00:30:29.906Z,30.38
2022-10-29T00:32:56.906Z,28.98
2022-10-29T00:35:23.934Z,28.37
2022-10-29T00:37:50.774Z,31.02
2022-10-29T00:40:17.633Z,34.97
2022-10-29T00:42:44.449Z,29.55
2022-10-29T00:45:19.422Z,29.57
2022-10-29T00:47:46.252Z,26.70
2022-10-29T00:50:13.244Z,30.05
2022-10-29T00:52:42.951Z,32.72
2022-10-29T00:55:09.773Z,32.65
2022-10-29T00:57:39.677Z,33.10
2022-10-29T01:00:07.193Z,35.72
2022-10-29T01:02:34.205Z,35.97
2022-10-29T01:05:01.965Z,38.97
2022-10-29T01:07:28.737Z,37.53
2022-10-29T01:09:55.663Z,37.33
2022-10-29T01:12:44.663Z,29.50
2022-10-29T01:15:11.495Z,29.10
2022-10-29T01:17:54.196Z,25.55
2022-10-29T01:20:50.484Z,30.53
2022-10-29T01:23:48.356Z,33.17
2022-10-29T01:26:48.583Z,32.00
2022-10-29T01:30:06.517Z,31.70
2022-10-29T01:32:53.715Z,31.93
2022-10-29T01:35:37.735Z,32.73
2022-10-29T01:38:23.006Z,37.77
2022-10-29T01:40:55.288Z,36.73
2022-10-29T01:43:31.276Z,39.10
2022-10-29T01:46:04.913Z,38.87
2022-10-29T01:48:36.290Z,40.27
2022-10-29T01:51:08.361Z,37.40
2022-10-29T01:53:36.086Z,35.67
2022-10-29T01:56:02.855Z,38.27
2022-10-29T01:58:29.651Z,42.60
2022-10-29T02:01:05.807Z,45.10
2022-10-29T02:03:32.658Z,44.75
2022-10-29T02:06:07.721Z,46.10
2022-10-29T02:08:56.577Z,47.20
2022-10-29T02:11:26.137Z,46.58
2022-10-29T02:14:20.949Z,43.92
2022-10-29T02:16:47.725Z,44.00
2022-10-29T02:19:14.532Z,45.45
2022-10-29T02:21:42.604Z,50.17
2022-10-29T02:24:09.484Z,51.72
2022-10-29T02:26:36.241Z,48.00
2022-10-29T02:29:03.044Z,52.10
2022-10-29T02:31:29.914Z,46.67
2022-10-29T02:33:56.670Z,44.03
2022-10-29T02:36:23.482Z,45.28
2022-10-29T02:38:50.261Z,41.73
2022-10-29T02:41:17.014Z,41.33
2022-10-29T02:43:43.873Z,41.42
2022-10-29T02:46:15.143Z,45.55
2022-10-29T02:48:42.283Z,46.97
2022-10-29T02:51:09.239Z,48.80
2022-10-29T02:53:36.040Z,50.90
2022-10-29T02:56:03.320Z,51.28
2022-10-29T02:58:30.338Z,51.55
2022-10-29T03:00:57.150Z,54.20
2022-10-29T03:03:24.520Z,56.78
2022-10-29T03:05:51.589Z,57.75
2022-10-29T03:08:18.533Z,56.40
2022-10-29T03:10:45.421Z,54.05
2022-10-29T03:13:12.266Z,53.60
2022-10-29T03:15:39.074Z,58.08
2022-10-29T03:18:06.017Z,59.97
2022-10-29T03:20:32.817Z,57.15
2022-10-29T03:22:59.565Z,51.95
2022-10-29T03:25:26.416Z,51.58
2022-10-29T03:27:53.361Z,55.58
2022-10-29T03:30:20.277Z,56.70
2022-10-29T03:32:47.796Z,58.45
2022-10-29T03:35:15.532Z,57.97
2022-10-29T03:37:42.341Z,56.88
2022-10-29T03:40:09.478Z,51.05
2022-10-29T03:42:36.332Z,57.17
2022-10-29T03:45:03.296Z,57.88
2022-10-29T03:47:30.076Z,59.38
2022-10-29T03:49:56.833Z,56.28
2022-10-29T03:52:23.640Z,56.35
2022-10-29T03:54:50.426Z,55.30
2022-10-29T03:57:17.191Z,56.37
2022-10-29T03:59:45.970Z,54.30
2022-10-29T04:02:15.340Z,58.90
2022-10-29T04:04:42.177Z,61.05
2022-10-29T04:07:08.964Z,62.10
2022-10-29T04:09:35.813Z,63.05
2022-10-29T04:12:03.093Z,61.03
2022-10-29T04:14:29.974Z,58.15
2022-10-29T04:16:57.986Z,49.75
2022-10-29T04:19:25.777Z,59.85
2022-10-29T04:32:45.940Z,56.35
2022-10-29T04:35:12.729Z,52.05
2022-10-29T04:37:39.617Z,55.05
2022-10-29T04:40:06.784Z,55.55
2022-10-29T04:42:37.647Z,55.40
2022-10-29T04:45:05.712Z,53.78
2022-10-29T04:47:32.482Z,55.80
2022-10-29T04:49:59.287Z,57.20
2022-10-29T04:52:26.277Z,57.90
2022-10-29T04:54:53.078Z,60.17
2022-10-29T04:57:19.840Z,55.35
2022-10-29T04:59:46.615Z,54.65
2022-10-29T05:02:13.428Z,51.92
2022-10-29T05:04:40.177Z,45.72
2022-10-29T05:07:07.053Z,44.53
2022-10-29T05:09:33.810Z,48.08
2022-10-29T05:12:00.562Z,43.15
2022-10-29T05:14:27.432Z,35.30
2022-10-29T05:16:54.353Z,30.27
2022-10-29T05:19:21.162Z,35.40
2022-10-29T05:21:47.983Z,35.60
2022-10-29T05:24:15.821Z,54.05
2022-10-29T05:26:43.925Z,52.00
2022-10-29T05:29:10.697Z,53.28
2022-10-29T05:31:37.477Z,60.30
2022-10-29T05:34:04.241Z,63.85
2022-10-29T05:36:31.078Z,58.50
2022-10-29T05:38:57.936Z,61.40
2022-10-29T05:41:24.727Z,66.45
2022-10-29T05:43:51.603Z,59.30
2022-10-29T05:46:18.455Z,63.97
2022-10-29T05:48:45.240Z,66.00
2022-10-29T05:51:12.005Z,60.13
2022-10-29T05:53:38.823Z,56.72
2022-10-29T05:56:06.221Z,60.80
2022-10-29T05:58:32.979Z,58.28
2022-10-29T06:00:59.732Z,54.10
2022-10-29T06:03:26.535Z,52.28
2022-10-29T06:05:53.316Z,52.50
2022-10-29T06:08:20.070Z,56.30
2022-10-29T06:10:46.860Z,50.95
2022-10-29T06:13:15.361Z,56.60
2022-10-29T06:15:42.228Z,54.00
2022-10-29T06:18:09.028Z,50.83
2022-10-29T06:20:36.553Z,51.35
2022-10-29T06:23:03.695Z,41.97
2022-10-29T06:25:30.851Z,56.42
2022-10-29T06:28:04.212Z,59.78
2022-10-29T06:30:31.595Z,60.40
2022-10-29T06:32:58.976Z,62.38
2022-10-29T06:35:26.031Z,67.50
2022-10-29T06:37:53.149Z,64.15
2022-10-29T06:40:20.104Z,74.38
2022-10-29T06:42:46.948Z,70.03
2022-10-29T06:45:13.901Z,63.25
2022-10-29T06:47:44.476Z,46.72
2022-10-29T06:50:12.495Z,63.08
2022-10-29T06:52:39.336Z,63.45
2022-10-29T06:55:06.689Z,60.40
2022-10-29T06:57:33.456Z,71.40
2022-10-29T07:00:05.405Z,71.50
2022-10-29T07:02:35.483Z,62.17
2022-10-29T07:05:02.300Z,68.18
2022-10-29T07:07:29.426Z,60.67
2022-10-29T07:09:56.311Z,59.22
2022-10-29T07:12:23.061Z,62.20
2022-10-29T07:14:49.816Z,59.72
2022-10-29T07:17:16.617Z,62.10
2022-10-29T07:19:43.367Z,66.03
2022-10-29T07:22:10.113Z,67.90
2022-10-29T07:24:36.934Z,71.53
2022-10-29T07:27:03.865Z,74.60
2022-10-29T07:29:30.742Z,74.40
2022-10-29T07:31:57.577Z,74.32
2022-10-29T07:34:24.377Z,68.45
2022-10-29T07:36:51.146Z,73.28
2022-10-29T07:39:18.011Z,74.43
2022-10-29T07:41:44.807Z,69.55
2022-10-29T07:44:11.580Z,72.10
2022-10-29T07:46:38.453Z,78.70
2022-10-29T07:49:05.232Z,77.47
2022-10-29T07:51:32.069Z,82.70
2022-10-29T07:53:58.882Z,78.82
2022-10-29T07:56:25.671Z,82.53
2022-10-29T07:58:52.436Z,85.55
2022-10-29T08:01:19.478Z,81.30
2022-10-29T08:03:46.426Z,83.32
2022-10-29T08:06:13.197Z,85.78
2022-10-29T08:08:39.973Z,79.55
2022-10-29T08:11:07.209Z,81.22
2022-10-29T08:13:34.072Z,84.93
2022-10-29T08:16:00.863Z,82.93
2022-10-29T08:18:27.704Z,93.30
2022-10-29T08:20:54.462Z,94.00
2022-10-29T08:23:21.313Z,74.43
2022-10-29T08:25:48.148Z,61.78
2022-10-29T08:28:15.338Z,65.00
2022-10-29T08:30:44.058Z,67.07
2022-10-29T08:33:11.378Z,59.63
2022-10-29T08:35:38.283Z,58.63
2022-10-29T08:38:05.092Z,53.47
2022-10-29T08:40:45.100Z,55.78
2022-10-29T08:43:36.850Z,53.47
2022-10-29T08:46:03.695Z,57.53
2022-10-29T08:48:44.509Z,52.35
2022-10-29T08:51:20.488Z,49.75
2022-10-29T08:54:03.979Z,52.22
2022-10-29T08:56:36.237Z,49.53
2022-10-29T08:59:29.831Z,51.90
2022-10-29T09:01:56.859Z,45.80
2022-10-29T09:04:36.941Z,43.63
2022-10-29T09:07:34.374Z,40.50
2022-10-29T09:10:17.417Z,44.67
2022-10-29T09:13:02.771Z,44.85
2022-10-29T09:15:45.275Z,41.47
2022-10-29T09:18:48.992Z,41.45
2022-10-29T09:21:37.999Z,46.92
2022-10-29T09:24:09.187Z,40.80
2022-10-29T09:26:48.968Z,41.35
2022-10-29T09:29:31.738Z,35.17
2022-10-29T09:32:04.326Z,35.67
2022-10-29T09:34:34.516Z,35.40
2022-10-29T09:37:01.289Z,43.65
2022-10-29T09:39:35.435Z,45.10
2022-10-29T09:42:02.964Z,42.03
2022-10-29T09:44:38.386Z,43.85
2022-10-29T09:47:26.038Z,40.35
2022-10-29T09:50:16.297Z,39.95
2022-10-29T09:52:44.065Z,38.38
2022-10-29T09:55:38.311Z,34.63
2022-10-29T09:58:05.137Z,32.05
2022-10-29T10:00:31.965Z,32.83
2022-10-29T10:03:03.799Z,27.92
2022-10-29T10:05:32.708Z,28.75
2022-10-29T10:08:13.271Z,31.70
2022-10-29T10:10:53.664Z,21.83
2022-10-29T10:13:24.665Z,21.95
2022-10-29T10:15:55.729Z,19.52
2022-10-29T10:18:24.424Z,18.77
2022-10-29T10:21:06.681Z,13.68
2022-10-29T10:23:46.977Z,21.27
2022-10-29T10:26:36.947Z,21.60
2022-10-29T10:29:16.613Z,22.42
2022-10-29T10:31:56.410Z,20.83
2022-10-29T10:34:24.652Z,19.35
2022-10-29T10:37:05.223Z,19.58
2022-10-29T10:39:38.479Z,17.92
2022-10-29T10:42:24.875Z,20.15
2022-10-29T10:44:58.345Z,20.85
2022-10-29T10:47:27.456Z,16.45
2022-10-29T10:49:54.280Z,17.42
2022-10-29T10:52:28.868Z,12.57
2022-10-29T10:55:08.149Z,18.98
2022-10-29T10:57:38.118Z,15.15
2022-10-29T11:00:20.139Z,18.60
2022-10-29T11:02:54.916Z,16.52
2022-10-29T11:05:46.935Z,19.30
2022-10-29T11:08:28.063Z,14.00
2022-10-29T11:10:56.805Z,22.80
2022-10-29T11:13:30.515Z,13.15
2022-10-29T11:16:16.364Z,19.67
2022-10-29T11:18:53.321Z,14.57
2022-10-29T11:21:30.775Z,14.65
2022-10-29T11:24:13.879Z,20.67
2022-10-29T11:26:41.591Z,13.52
2022-10-29T11:29:14.476Z,12.20
2022-10-29T11:31:53.882Z,15.32
2022-10-29T11:34:42.127Z,19.98
2022-10-29T11:37:36.955Z,18.40
2022-10-29T11:40:15.079Z,14.13
2022-10-29T11:42:41.911Z,19.58
2022-10-29T11:45:12.186Z,20.88
2022-10-29T11:48:03.075Z,17.40
2022-10-29T11:51:10.922Z,22.50
2022-10-29T11:54:08.637Z,16.50
2022-10-29T11:57:03.885Z,16.40
2022-10-29T11:59:53.561Z,17.63
2022-10-29T12:02:31.208Z,15.20
2022-10-29T12:05:30.569Z,16.35
2022-10-29T12:08:12.452Z,13.60
2022-10-29T12:10:52.642Z,15.48
2022-10-29T12:13:39.687Z,14.93
2022-10-29T12:16:28.744Z,16.90
2022-10-29T12:19:20.380Z,17.00
2022-10-29T12:22:12.181Z,17.88
2022-10-29T12:24:51.775Z,17.88
2022-10-29T12:27:26.068Z,17.55
2022-10-29T12:30:10.224Z,13.23
2022-10-29T12:32:45.913Z,13.35
2022-10-29T12:35:31.308Z,18.77
2022-10-29T12:38:14.030Z,16.23
2022-10-29T12:40:43.293Z,21.17
2022-10-29T12:43:25.269Z,14.93
2022-10-29T12:46:19.922Z,15.25
2022-10-29T12:49:25.677Z,15.15
2022-10-29T12:52:04.070Z,18.60
2022-10-29T12:54:37.334Z,18.52
2022-10-29T12:57:06.037Z,16.48
2022-10-29T12:59:37.001Z,16.80
2022-10-29T13:02:34.560Z,18.27
2022-10-29T13:05:10.353Z,15.25
2022-10-29T13:07:38.073Z,21.63
2022-10-29T13:10:23.429Z,14.50
2022-10-29T13:13:05.516Z,23.75
2022-10-29T13:15:55.765Z,12.40
2022-10-29T13:18:45.129Z,13.35
2022-10-29T13:21:11.889Z,17.58
2022-10-29T13:23:38.646Z,14.48
2022-10-29T13:26:08.885Z,11.63
2022-10-29T13:28:35.691Z,13.57
2022-10-29T13:31:08.393Z,12.90
2022-10-29T13:33:38.172Z,15.50
2022-10-29T13:36:06.404Z,19.20
2022-10-29T13:39:08.514Z,13.23
2022-10-29T13:41:48.680Z,15.90
2022-10-29T13:44:28.002Z,16.65
2022-10-29T13:47:02.592Z,15.07
2022-10-29T13:49:48.371Z,15.13
2022-10-29T13:52:19.222Z,15.18
2022-10-29T13:54:59.368Z,15.20
2022-10-29T13:57:34.243Z,17.33
2022-10-29T14:00:12.914Z,16.63
2022-10-29T14:02:42.811Z,12.45
2022-10-29T14:05:23.155Z,18.88
2022-10-29T14:08:11.961Z,14.82
2022-10-29T14:10:41.805Z,15.77
2022-10-29T14:13:14.421Z,16.95
2022-10-29T14:16:09.106Z,18.58
2022-10-29T14:18:43.517Z,12.32
2022-10-29T14:21:36.616Z,19.00
2022-10-29T14:24:07.997Z,12.02
2022-10-29T14:26:39.426Z,14.80
2022-10-29T14:29:25.302Z,10.70
2022-10-29T14:32:15.117Z,19.45
2022-10-29T14:34:42.274Z,17.67
2022-10-29T14:37:14.226Z,15.40
2022-10-29T14:39:58.031Z,22.05
2022-10-29T14:42:38.205Z,13.15
2022-10-29T14:45:17.023Z,19.48
2022-10-29T14:47:50.284Z,15.80
2022-10-29T14:50:21.486Z,15.00
2022-10-29T14:53:15.621Z,15.57
2022-10-29T14:55:46.258Z,16.33
2022-10-29T14:58:19.593Z,14.65
2022-10-29T15:00:54.714Z,20.52
2022-10-29T15:03:23.890Z,17.08
2022-10-29T15:05:50.774Z,17.25
2022-10-29T15:08:24.092Z,12.57
2022-10-29T15:10:56.104Z,14.10
2022-10-29T15:13:31.820Z,16.40
2022-10-29T15:16:09.439Z,15.38
2022-10-29T15:18:36.234Z,13.48
2022-10-29T15:21:03.182Z,12.65
2022-10-29T15:23:41.165Z,17.80
2022-10-29T15:26:15.318Z,14.02
2022-10-29T15:28:44.200Z,20.60
2022-10-29T15:31:43.777Z,19.55
2022-10-29T15:34:14.820Z,18.52
2022-10-29T15:36:49.365Z,15.60
2022-10-29T15:39:59.198Z,16.05
2022-10-29T15:42:30.674Z,14.75
2022-10-29T15:45:21.805Z,13.05
2022-10-29T15:47:54.819Z,11.10
2022-10-29T15:50:28.004Z,17.45
2022-10-29T15:53:01.735Z,17.77
2022-10-29T15:55:30.037Z,15.30
2022-10-29T15:58:03.265Z,17.33
2022-10-29T16:00:30.574Z,15.65
2022-10-29T16:03:13.332Z,13.60
2022-10-29T16:05:40.828Z,17.60
2022-10-29T16:08:09.023Z,15.85
2022-10-29T16:10:36.014Z,17.38
2022-10-29T16:13:02.817Z,16.30
2022-10-29T16:15:29.608Z,16.75
2022-10-29T16:17:56.623Z,15.45
2022-10-29T16:20:23.838Z,20.08
2022-10-29T16:22:50.661Z,16.42
2022-10-29T16:25:28.084Z,15.25
2022-10-29T16:27:55.638Z,15.00
2022-10-29T16:30:23.321Z,16.52
2022-10-29T16:32:50.383Z,10.90
2022-10-29T16:35:27.325Z,18.60
2022-10-29T16:37:54.948Z,17.23
2022-10-29T16:40:24.656Z,20.67
2022-10-29T16:42:51.505Z,18.88
2022-10-29T16:45:22.950Z,16.05
2022-10-29T16:47:51.978Z,20.90
2022-10-29T16:50:27.437Z,14.65
2022-10-29T16:53:20.384Z,18.90
2022-10-29T16:55:47.189Z,20.10
2022-10-29T16:58:15.073Z,18.52
2022-10-29T17:00:41.999Z,17.05
2022-10-29T17:03:11.692Z,18.90
2022-10-29T17:05:40.921Z,12.73
2022-10-29T17:08:07.812Z,17.00
2022-10-29T17:10:35.096Z,18.77
2022-10-29T17:13:01.947Z,19.10
2022-10-29T17:15:28.726Z,21.88
2022-10-29T17:17:55.784Z,16.98
2022-10-29T17:20:22.798Z,18.92
2022-10-29T17:22:49.558Z,20.02
2022-10-29T17:25:16.372Z,22.05
2022-10-29T17:27:43.248Z,16.55
2022-10-29T17:30:10.507Z,18.00
2022-10-29T17:32:37.399Z,20.90
2022-10-29T17:35:04.485Z,19.55
2022-10-29T17:37:31.405Z,15.15
2022-10-29T17:40:02.914Z,13.35
2022-10-29T17:42:33.668Z,16.70
2022-10-29T17:45:00.467Z,19.65
2022-10-29T17:47:27.410Z,13.68
2022-10-29T17:49:54.408Z,16.92
2022-10-29T17:52:22.353Z,18.63
2022-10-29T17:54:49.184Z,16.70
2022-10-29T17:57:15.945Z,18.42
2022-10-29T17:59:42.744Z,17.73
2022-10-29T18:02:10.933Z,15.23
2022-10-29T18:04:37.864Z,18.88
2022-10-29T18:07:04.676Z,22.02
2022-10-29T18:09:31.442Z,20.02
2022-10-29T18:11:58.222Z,20.08
2022-10-29T18:14:25.035Z,20.63
2022-10-29T18:16:51.751Z,19.08
2022-10-29T18:19:18.544Z,12.50
2022-10-29T18:21:45.567Z,21.63
2022-10-29T18:24:12.370Z,17.10
2022-10-29T18:26:39.164Z,19.38
2022-10-29T18:29:10.377Z,18.95
2022-10-29T18:31:37.646Z,20.35
2022-10-29T18:34:06.002Z,20.25
2022-10-29T18:36:35.561Z,20.05
2022-10-29T18:39:04.024Z,18.13
2022-10-29T18:41:31.033Z,19.73
2022-10-29T18:43:58.546Z,20.33
2022-10-29T18:46:25.441Z,18.98
2022-10-29T18:48:52.349Z,20.88
2022-10-29T18:51:24.870Z,16.77
2022-10-29T18:53:52.604Z,18.30
2022-10-29T18:56:20.349Z,17.45
2022-10-29T18:58:47.166Z,18.88
2022-10-29T19:01:22.688Z,19.35
2022-10-29T19:03:54.618Z,25.48
2022-10-29T19:06:21.813Z,19.80
2022-10-29T19:08:48.722Z,17.15
2022-10-29T19:11:17.921Z,16.63
2022-10-29T19:13:49.448Z,20.15
2022-10-29T19:16:16.226Z,20.08
2022-10-29T19:18:43.081Z,19.50
2022-10-29T19:21:14.233Z,18.48
2022-10-29T19:23:41.084Z,20.63
2022-10-29T19:26:09.587Z,22.13
2022-10-29T19:28:36.546Z,21.45
2022-10-29T19:31:11.287Z,19.48
2022-10-29T19:33:38.272Z,18.73
2022-10-29T19:36:06.077Z,26.50
2022-10-29T19:38:32.995Z,21.08
2022-10-29T19:40:59.861Z,21.42
2022-10-29T19:43:27.121Z,19.33
2022-10-29T19:45:53.877Z,20.45
2022-10-29T19:48:20.750Z,18.48
2022-10-29T19:50:56.755Z,19.67
2022-10-29T19:53:24.065Z,21.80
2022-10-29T19:55:51.059Z,18.05
2022-10-29T19:58:18.503Z,20.35
2022-10-29T20:00:45.410Z,19.67
2022-10-29T20:03:12.888Z,17.35
2022-10-29T20:05:40.181Z,20.63
2022-10-29T20:08:10.069Z,23.17
2022-10-29T20:10:41.582Z,20.33
2022-10-29T20:13:08.411Z,20.85
2022-10-29T20:15:35.177Z,20.20
2022-10-29T20:18:01.974Z,19.33
2022-10-29T20:20:29.183Z,15.18
2022-10-29T20:22:56.979Z,21.42
2022-10-29T20:25:25.078Z,24.13
2022-10-29T20:27:51.838Z,21.02
2022-10-29T20:30:18.648Z,18.20
2022-10-29T20:32:45.469Z,18.48
2022-10-29T20:35:12.239Z,20.00
2022-10-29T20:37:39.023Z,16.52
2022-10-29T20:40:06.191Z,23.60
2022-10-29T20:42:33.040Z,17.13
2022-10-29T20:44:59.818Z,20.58
2022-10-29T20:47:26.579Z,14.82
2022-10-29T20:49:53.372Z,23.17
2022-10-29T20:52:20.130Z,17.92
2022-10-29T20:54:46.904Z,19.10
2022-10-29T20:57:13.813Z,20.00
2022-10-29T20:59:40.561Z,20.27
2022-10-29T21:02:07.534Z,16.40
2022-10-29T21:04:34.662Z,22.67
2022-10-29T21:07:01.483Z,22.25
2022-10-29T21:09:28.237Z,21.52
2022-10-29T21:11:55.021Z,24.48
2022-10-29T21:14:23.496Z,21.90
2022-10-29T21:16:50.309Z,20.48
2022-10-29T21:19:17.170Z,22.83
2022-10-29T21:21:43.928Z,20.55
2022-10-29T21:24:10.687Z,18.05
2022-10-29T21:26:37.525Z,23.17
2022-10-29T21:29:04.297Z,26.92
2022-10-29T21:31:31.168Z,22.17
2022-10-29T21:33:58.005Z,19.17
2022-10-29T21:36:24.906Z,22.70
2022-10-29T21:38:51.704Z,22.10
2022-10-29T21:41:18.617Z,25.30
2022-10-29T21:43:45.413Z,22.42
2022-10-29T21:46:12.210Z,18.30
2022-10-29T21:48:39.051Z,23.20
2022-10-29T21:51:07.805Z,21.13
2022-10-29T21:53:34.655Z,20.50
2022-10-29T21:56:03.119Z,16.95
2022-10-29T21:58:29.938Z,19.15
2022-10-29T22:01:10.692Z,23.50
2022-10-29T22:03:38.828Z,21.35
2022-10-29T22:06:07.104Z,24.63
2022-10-29T22:08:34.511Z,23.73
2022-10-29T22:11:01.445Z,28.38
2022-10-29T22:13:31.859Z,20.35
2022-10-29T22:16:00.069Z,24.20
2022-10-29T22:18:27.183Z,22.42
2022-10-29T22:21:08.144Z,21.08
2022-10-29T22:23:34.991Z,28.17
2022-10-29T22:26:01.829Z,23.88
2022-10-29T22:28:28.621Z,23.15
2022-10-29T22:31:01.771Z,18.33
2022-10-29T22:33:29.061Z,20.98
2022-10-29T22:35:55.898Z,19.30
2022-10-29T22:38:22.750Z,14.43
2022-10-29T22:40:49.510Z,18.63
2022-10-29T22:43:16.344Z,16.80
2022-10-29T22:45:45.323Z,21.08
2022-10-29T22:48:12.281Z,20.58
2022-10-29T22:50:39.062Z,22.73
2022-10-29T22:53:05.872Z,21.88
2022-10-29T22:55:32.673Z,26.38
2022-10-29T22:57:59.430Z,22.77
2022-10-29T23:00:26.229Z,23.70
2022-10-29T23:02:53.020Z,22.88
2022-10-29T23:05:19.825Z,25.98
2022-10-29T23:07:46.698Z,22.90
2022-10-29T23:10:13.488Z,26.52
2022-10-29T23:12:40.325Z,27.77
2022-10-29T23:15:08.467Z,23.80
2022-10-29T23:17:35.312Z,22.85
2022-10-29T23:20:02.140Z,23.13
2022-10-29T23:22:28.902Z,25.58
2022-10-29T23:24:55.673Z,25.77
2022-10-29T23:27:22.564Z,26.80
2022-10-29T23:29:49.361Z,28.20
2022-10-29T23:32:16.134Z,26.33
2022-10-29T23:34:43.026Z,24.90
2022-10-29T23:37:10.279Z,25.02
2022-10-29T23:39:37.358Z,23.23
2022-10-29T23:42:04.361Z,23.50
2022-10-29T23:44:31.180Z,25.05
2022-10-29T23:46:57.940Z,19.17
2022-10-29T23:49:24.733Z,24.20
2022-10-29T23:51:51.525Z,24.88
2022-10-29T23:54:18.297Z,24.05
2022-10-29T23:56:45.154Z,23.25
2022-10-29T23:59:11.921Z,30.15
